createdAt,value
2022-09-28T00:01:09.289Z,9.68
2022-09-28T00:03:36.957Z,9.66
2022-09-28T00:06:08.939Z,9.63
2022-09-28T00:08:36.707Z,9.55
2022-09-28T00:11:05.073Z,9.55
2022-09-28T00:13:33.248Z,9.58
2022-09-28T00:16:17.262Z,9.60
2022-09-28T00:18:45.608Z,9.52
2022-09-28T00:21:17.518Z,9.47
2022-09-28T00:24:03.369Z,9.42
2022-09-28T00:26:32.041Z,9.47
2022-09-28T00:29:00.886Z,9.39
2022-09-28T00:31:30.259Z,9.40
2022-09-28T00:33:57.449Z,9.36
2022-09-28T00:36:24.691Z,9.37
2022-09-28T00:38:52.312Z,9.37
2022-09-28T00:41:19.091Z,9.47
2022-09-28T00:43:45.995Z,9.44
2022-09-28T00:46:18.233Z,9.41
2022-09-28T00:48:55.323Z,9.48
2022-09-28T00:51:24.051Z,9.50
2022-09-28T00:53:51.147Z,9.33
2022-09-28T00:56:20.603Z,9.46
2022-09-28T00:58:50.426Z,9.46
2022-09-28T01:01:17.513Z,9.45
2022-09-28T01:03:48.717Z,9.36
2022-09-28T01:06:20.278Z,9.37
2022-09-28T01:08:50.482Z,9.31
2022-09-28T01:11:18.812Z,9.29
2022-09-28T01:13:47.094Z,9.27
2022-09-28T01:16:16.989Z,9.35
2022-09-28T01:19:01.856Z,9.31
2022-09-28T01:21:28.627Z,9.29
2022-09-28T01:24:24.680Z,9.24
2022-09-28T01:27:06.368Z,9.26
2022-09-28T01:30:12.319Z,9.25
2022-09-28T01:32:54.670Z,9.12
2022-09-28T01:35:31.357Z,9.14
2022-09-28T01:38:19.601Z,9.10
2022-09-28T01:40:47.389Z,9.05
2022-09-28T01:43:17.993Z,8.94
2022-09-28T01:45:50.977Z,8.89
2022-09-28T01:48:29.485Z,8.91
2022-09-28T01:50:59.588Z,8.89
2022-09-28T01:53:33.215Z,8.95
2022-09-28T01:56:04.856Z,8.83
2022-09-28T01:58:39.525Z,8.93
2022-09-28T02:01:18.293Z,8.95
2022-09-28T02:04:01.172Z,8.98
2022-09-28T02:06:38.856Z,8.98
2022-09-28T02:09:11.632Z,8.98
2022-09-28T02:11:43.010Z,8.88
2022-09-28T02:14:11.849Z,8.93
2022-09-28T02:16:42.436Z,8.86
2022-09-28T02:19:12.977Z,8.87
2022-09-28T02:21:54.980Z,8.82
2022-09-28T02:24:34.169Z,8.76
2022-09-28T02:27:06.779Z,8.77
2022-09-28T02:29:33.535Z,8.84
2022-09-28T02:32:00.421Z,8.91
2022-09-28T02:34:27.264Z,8.94
2022-09-28T02:36:54.254Z,8.90
2022-09-28T02:39:20.982Z,8.93
2022-09-28T02:41:59.785Z,8.93
2022-09-28T02:44:40.065Z,8.90
2022-09-28T02:47:39.107Z,8.92
2022-09-28T02:50:20.846Z,8.89
2022-09-28T02:53:05.550Z,8.83
2022-09-28T02:55:43.588Z,8.87
2022-09-28T02:58:19.307Z,8.92
2022-09-28T03:01:15.445Z,8.91
2022-09-28T03:03:55.595Z,8.87
2022-09-28T03:06:27.538Z,8.92
2022-09-28T03:09:03.355Z,8.93
2022-09-28T03:11:53.039Z,8.86
2022-09-28T03:14:21.242Z,8.87
2022-09-28T03:16:48.091Z,8.87
2022-09-28T03:19:17.028Z,8.82
2022-09-28T03:21:43.923Z,8.74
2022-09-28T03:24:11.208Z,8.74
2022-09-28T03:26:38.957Z,8.73
2022-09-28T03:29:06.008Z,8.81
2022-09-28T03:31:32.838Z,8.78
2022-09-28T03:33:59.762Z,8.75
2022-09-28T03:36:26.569Z,8.75
2022-09-28T03:38:56.532Z,8.72
2022-09-28T03:41:27.814Z,8.74
2022-09-28T03:43:54.923Z,8.71
2022-09-28T03:46:21.886Z,8.76
2022-09-28T03:48:48.920Z,8.76
2022-09-28T03:51:15.754Z,8.73
2022-09-28T03:53:42.627Z,8.70
2022-09-28T03:56:14.172Z,8.71
2022-09-28T03:58:41.080Z,8.72
2022-09-28T04:01:16.625Z,8.66
2022-09-28T04:03:44.031Z,8.77
2022-09-28T04:06:11.305Z,8.74
2022-09-28T04:08:38.552Z,8.76
2022-09-28T04:11:05.601Z,8.76
2022-09-28T04:13:32.791Z,8.72
2022-09-28T04:16:01.334Z,8.79
2022-09-28T04:18:29.291Z,8.77
2022-09-28T04:21:22.211Z,8.77
2022-09-28T04:23:49.286Z,8.57
2022-09-28T04:26:19.861Z,8.52
2022-09-28T04:29:06.927Z,8.51
2022-09-28T04:31:38.985Z,8.46
2022-09-28T04:34:05.842Z,8.48
2022-09-28T04:36:32.702Z,8.47
2022-09-28T04:39:00.143Z,8.46
2022-09-28T04:41:29.135Z,8.44
2022-09-28T04:43:57.264Z,8.25
2022-09-28T04:46:24.127Z,8.34
2022-09-28T04:48:51.063Z,8.36
2022-09-28T04:51:17.942Z,8.26
2022-09-28T04:53:44.729Z,8.29
2022-09-28T04:56:13.559Z,8.26
2022-09-28T04:58:41.024Z,8.26
2022-09-28T05:01:12.170Z,8.23
2022-09-28T05:03:39.459Z,8.23
2022-09-28T05:06:09.325Z,8.14
2022-09-28T05:08:36.257Z,8.06
2022-09-28T05:11:05.073Z,7.97
2022-09-28T05:13:33.262Z,8.01
2022-09-28T05:16:05.070Z,7.97
2022-09-28T05:18:32.782Z,8.01
2022-09-28T05:20:59.835Z,8.00
2022-09-28T05:23:26.657Z,8.04
2022-09-28T05:25:53.585Z,8.09
2022-09-28T05:28:25.193Z,8.28
2022-09-28T05:30:52.334Z,8.72
2022-09-28T05:33:19.222Z,8.95
2022-09-28T05:35:49.794Z,8.99
2022-09-28T05:38:19.425Z,8.96
2022-09-28T05:40:46.378Z,9.13
2022-09-28T05:43:13.207Z,9.55
2022-09-28T05:45:40.210Z,9.68
2022-09-28T05:48:07.021Z,10.31
2022-09-28T05:50:34.103Z,10.62
2022-09-28T05:53:06.375Z,11.24
2022-09-28T05:55:33.646Z,11.87
2022-09-28T05:58:02.291Z,11.79
2022-09-28T06:00:30.144Z,12.48
2022-09-28T06:02:58.688Z,12.39
2022-09-28T06:05:26.335Z,11.69
2022-09-28T06:07:56.157Z,11.35
2022-09-28T06:10:23.418Z,11.76
2022-09-28T06:12:54.523Z,11.84
2022-09-28T06:15:23.115Z,12.13
2022-09-28T06:17:58.982Z,12.25
2022-09-28T06:20:26.967Z,12.09
2022-09-28T06:22:54.212Z,11.95
2022-09-28T06:25:22.191Z,11.83
2022-09-28T06:27:55.737Z,12.02
2022-09-28T06:30:24.262Z,12.24
2022-09-28T06:32:58.550Z,12.39
2022-09-28T06:35:27.474Z,12.61
2022-09-28T06:37:54.268Z,12.85
2022-09-28T06:40:21.543Z,13.09
2022-09-28T06:42:59.334Z,13.25
2022-09-28T06:45:27.867Z,13.31
2022-09-28T06:48:01.266Z,13.60
2022-09-28T06:50:34.688Z,13.74
2022-09-28T06:53:01.851Z,13.79
2022-09-28T06:55:28.933Z,13.82
2022-09-28T06:58:06.658Z,13.88
2022-09-28T07:00:35.341Z,13.99
2022-09-28T07:03:04.009Z,14.06
2022-09-28T07:05:34.551Z,14.18
2022-09-28T07:08:02.054Z,14.31
2022-09-28T07:10:30.404Z,14.42
2022-09-28T07:12:58.132Z,14.45
2022-09-28T07:15:25.412Z,14.56
2022-09-28T07:18:02.839Z,14.78
2022-09-28T07:20:41.217Z,15.14
2022-09-28T07:23:19.377Z,15.25
2022-09-28T07:25:49.615Z,14.91
2022-09-28T07:28:17.398Z,15.41
2022-09-28T07:30:44.694Z,15.53
2022-09-28T07:33:14.554Z,15.55
2022-09-28T07:35:42.496Z,15.80
2022-09-28T07:38:10.602Z,15.76
2022-09-28T07:40:55.876Z,15.45
2022-09-28T07:43:22.693Z,15.25
2022-09-28T07:45:52.411Z,15.32
2022-09-28T07:48:20.115Z,15.14
2022-09-28T07:50:55.137Z,15.82
2022-09-28T07:53:23.610Z,15.99
2022-09-28T07:56:02.012Z,15.85
2022-09-28T07:58:29.346Z,15.95
2022-09-28T08:00:56.285Z,16.38
2022-09-28T08:03:23.038Z,16.61
2022-09-28T08:05:49.958Z,16.63
2022-09-28T08:08:16.909Z,16.58
2022-09-28T08:10:46.978Z,16.53
2022-09-28T08:13:15.277Z,16.41
2022-09-28T08:15:42.639Z,16.00
2022-09-28T08:18:10.230Z,16.47
2022-09-28T08:20:55.673Z,16.54
2022-09-28T08:23:23.545Z,16.48
2022-09-28T08:25:52.736Z,16.42
2022-09-28T08:28:22.637Z,16.78
2022-09-28T08:30:50.182Z,16.92
2022-09-28T08:33:20.406Z,16.95
2022-09-28T08:35:48.276Z,16.53
2022-09-28T08:38:15.339Z,17.05
2022-09-28T08:41:05.577Z,17.28
2022-09-28T08:43:39.447Z,16.20
2022-09-28T08:46:07.026Z,17.09
2022-09-28T08:48:51.756Z,16.91
2022-09-28T08:51:29.332Z,16.76
2022-09-28T08:54:00.968Z,16.56
2022-09-28T08:56:32.036Z,16.60
2022-09-28T08:59:03.806Z,15.99
2022-09-28T09:01:38.655Z,16.06
2022-09-28T09:04:06.628Z,16.17
2022-09-28T09:06:51.007Z,16.29
2022-09-28T09:09:36.224Z,16.54
2022-09-28T09:12:14.319Z,16.76
2022-09-28T09:15:04.938Z,17.33
2022-09-28T09:18:22.369Z,17.81
2022-09-28T09:21:01.406Z,17.80
2022-09-28T09:23:39.461Z,17.93
2022-09-28T09:26:21.732Z,18.05
2022-09-28T09:29:08.536Z,17.98
2022-09-28T09:32:04.358Z,18.49
2022-09-28T09:34:42.946Z,18.69
2022-09-28T09:37:21.537Z,18.82
2022-09-28T09:40:11.024Z,18.92
2022-09-28T09:42:43.735Z,18.54
2022-09-28T09:45:30.549Z,18.37
2022-09-28T09:48:03.543Z,18.62
2022-09-28T09:50:30.638Z,18.80
2022-09-28T09:53:27.102Z,19.05
2022-09-28T09:55:57.429Z,19.00
2022-09-28T09:58:48.000Z,19.32
2022-09-28T10:01:18.564Z,19.50
2022-09-28T10:03:48.193Z,19.66
2022-09-28T10:06:21.153Z,19.64
2022-09-28T10:09:11.339Z,19.48
2022-09-28T10:11:46.811Z,19.36
2022-09-28T10:14:20.075Z,19.64
2022-09-28T10:16:48.571Z,19.66
2022-09-28T10:19:17.533Z,19.49
2022-09-28T10:21:46.880Z,19.06
2022-09-28T10:24:35.310Z,19.22
2022-09-28T10:27:18.437Z,19.38
2022-09-28T10:29:55.602Z,19.56
2022-09-28T10:32:36.771Z,19.15
2022-09-28T10:35:12.827Z,18.77
2022-09-28T10:37:57.903Z,18.57
2022-09-28T10:40:40.858Z,18.41
2022-09-28T10:43:23.509Z,18.35
2022-09-28T10:46:11.299Z,18.33
2022-09-28T10:48:48.952Z,18.33
2022-09-28T10:51:16.609Z,18.35
2022-09-28T10:53:58.765Z,18.42
2022-09-28T10:56:29.278Z,18.63
2022-09-28T10:58:56.091Z,18.52
2022-09-28T11:01:26.770Z,18.66
2022-09-28T11:04:00.033Z,18.46
2022-09-28T11:06:29.121Z,18.37
2022-09-28T11:08:58.669Z,18.79
2022-09-28T11:11:25.636Z,18.55
2022-09-28T11:14:01.124Z,18.43
2022-09-28T11:16:33.079Z,18.68
2022-09-28T11:19:20.669Z,18.90
2022-09-28T11:21:47.478Z,18.86
2022-09-28T11:24:23.093Z,18.96
2022-09-28T11:26:56.554Z,19.09
2022-09-28T11:29:44.065Z,19.02
2022-09-28T11:32:15.005Z,18.98
2022-09-28T11:34:59.130Z,19.02
2022-09-28T11:38:04.023Z,19.02
2022-09-28T11:41:24.632Z,18.90
2022-09-28T11:43:54.145Z,18.87
2022-09-28T11:46:33.090Z,18.78
2022-09-28T11:49:07.065Z,19.14
2022-09-28T11:51:36.479Z,19.04
2022-09-28T11:54:14.401Z,18.64
2022-09-28T11:56:47.990Z,18.51
2022-09-28T11:59:16.043Z,18.31
2022-09-28T12:01:51.811Z,18.05
2022-09-28T12:04:26.719Z,18.08
2022-09-28T12:06:59.105Z,18.16
2022-09-28T12:10:10.391Z,18.29
2022-09-28T12:12:45.689Z,18.18
2022-09-28T12:15:18.798Z,18.44
2022-09-28T12:17:50.719Z,18.31
2022-09-28T12:20:25.044Z,18.59
2022-09-28T12:23:25.946Z,18.59
2022-09-28T12:26:02.037Z,18.46
2022-09-28T12:28:28.823Z,18.37
2022-09-28T12:30:58.409Z,18.18
2022-09-28T12:33:25.234Z,18.05
2022-09-28T12:36:15.151Z,17.98
2022-09-28T12:39:21.712Z,17.84
2022-09-28T12:42:00.009Z,17.70
2022-09-28T12:44:57.159Z,17.50
2022-09-28T12:47:41.357Z,17.40
2022-09-28T12:50:54.520Z,17.26
2022-09-28T12:53:31.159Z,17.27
2022-09-28T12:55:57.946Z,17.42
2022-09-28T12:59:09.088Z,17.44
2022-09-28T13:01:49.994Z,17.69
2022-09-28T13:04:44.042Z,17.85
2022-09-28T13:07:50.704Z,18.02
2022-09-28T13:10:17.494Z,17.86
2022-09-28T13:13:07.685Z,17.80
2022-09-28T13:15:36.693Z,17.80
2022-09-28T13:18:11.022Z,17.68
2022-09-28T13:20:43.980Z,17.67
2022-09-28T13:23:23.917Z,17.54
2022-09-28T13:26:17.935Z,17.59
2022-09-28T13:28:47.027Z,17.65
2022-09-28T13:31:19.144Z,17.67
2022-09-28T13:33:46.722Z,17.70
2022-09-28T13:36:26.221Z,17.64
2022-09-28T13:38:57.013Z,17.71
2022-09-28T13:41:32.217Z,17.74
2022-09-28T13:44:11.581Z,17.61
2022-09-28T13:46:55.081Z,17.72
2022-09-28T13:49:27.697Z,17.81
2022-09-28T13:52:12.589Z,17.80
2022-09-28T13:54:57.684Z,17.63
2022-09-28T13:57:31.762Z,17.65
2022-09-28T14:00:08.462Z,17.54
2022-09-28T14:02:48.500Z,17.43
2022-09-28T14:05:27.045Z,17.48
2022-09-28T14:08:08.907Z,17.47
2022-09-28T14:10:55.894Z,17.29
2022-09-28T14:13:40.872Z,17.38
2022-09-28T14:16:27.513Z,17.41
2022-09-28T14:19:09.249Z,17.39
2022-09-28T14:21:54.227Z,17.29
2022-09-28T14:24:55.573Z,17.28
2022-09-28T14:27:51.720Z,17.11
2022-09-28T14:30:24.924Z,16.99
2022-09-28T14:32:59.876Z,16.91
2022-09-28T14:35:43.511Z,16.76
2022-09-28T14:38:38.612Z,16.80
2022-09-28T14:41:13.753Z,16.84
2022-09-28T14:43:46.571Z,16.91
2022-09-28T14:46:19.743Z,16.95
2022-09-28T14:48:52.769Z,16.95
2022-09-28T14:51:33.081Z,16.92
2022-09-28T14:54:02.424Z,16.99
2022-09-28T14:56:32.887Z,17.02
2022-09-28T14:59:00.317Z,17.08
2022-09-28T15:01:27.878Z,17.06
2022-09-28T15:03:57.296Z,17.00
2022-09-28T15:06:24.535Z,16.92
2022-09-28T15:08:51.546Z,16.82
2022-09-28T15:11:21.199Z,16.77
2022-09-28T15:13:48.138Z,16.69
2022-09-28T15:16:17.090Z,16.63
2022-09-28T15:18:56.247Z,16.55
2022-09-28T15:21:24.041Z,16.53
2022-09-28T15:23:50.993Z,16.44
2022-09-28T15:26:27.469Z,16.40
2022-09-28T15:28:54.801Z,16.23
2022-09-28T15:31:24.361Z,16.34
2022-09-28T15:34:10.191Z,16.30
2022-09-28T15:36:41.766Z,16.20
2022-09-28T15:39:20.598Z,16.20
2022-09-28T15:41:49.097Z,16.18
2022-09-28T15:44:15.973Z,16.10
2022-09-28T15:46:51.978Z,15.97
2022-09-28T15:49:26.965Z,15.94
2022-09-28T15:51:56.147Z,15.96
2022-09-28T15:54:35.221Z,15.82
2022-09-28T15:57:02.900Z,15.86
2022-09-28T15:59:38.209Z,15.78
2022-09-28T16:02:18.111Z,15.80
2022-09-28T16:04:56.016Z,15.74
2022-09-28T16:07:33.776Z,15.74
2022-09-28T16:10:12.831Z,15.70
2022-09-28T16:12:46.195Z,15.67
2022-09-28T16:15:21.125Z,15.51
2022-09-28T16:17:56.983Z,15.55
2022-09-28T16:20:34.110Z,15.44
2022-09-28T16:23:08.509Z,15.50
2022-09-28T16:25:37.453Z,15.51
2022-09-28T16:28:04.908Z,15.41
2022-09-28T16:30:33.732Z,15.40
2022-09-28T16:33:03.073Z,15.32
2022-09-28T16:35:40.941Z,15.30
2022-09-28T16:38:15.852Z,15.25
2022-09-28T16:40:44.265Z,15.29
2022-09-28T16:43:20.315Z,15.26
2022-09-28T16:45:47.103Z,15.18
2022-09-28T16:48:16.434Z,15.21
2022-09-28T16:50:45.147Z,15.20
2022-09-28T16:53:33.866Z,15.13
2022-09-28T16:56:02.030Z,15.11
2022-09-28T16:58:31.201Z,15.09
2022-09-28T17:00:58.793Z,15.04
2022-09-28T17:03:26.725Z,15.02
2022-09-28T17:05:55.123Z,14.97
2022-09-28T17:08:24.118Z,14.89
2022-09-28T17:11:18.054Z,14.84
2022-09-28T17:13:46.594Z,14.83
2022-09-28T17:16:28.186Z,14.77
2022-09-28T17:19:26.873Z,14.75
2022-09-28T17:21:54.415Z,14.64
2022-09-28T17:24:21.422Z,14.59
2022-09-28T17:26:50.254Z,14.67
2022-09-28T17:29:18.595Z,14.67
2022-09-28T17:31:46.483Z,14.72
2022-09-28T17:34:16.099Z,14.44
2022-09-28T17:36:43.807Z,14.76
2022-09-28T17:39:15.264Z,14.74
2022-09-28T17:41:42.271Z,14.76
2022-09-28T17:44:09.165Z,14.77
2022-09-28T17:46:40.831Z,14.72
2022-09-28T17:49:10.620Z,14.67
2022-09-28T17:51:37.703Z,14.52
2022-09-28T17:54:06.078Z,14.50
2022-09-28T17:56:32.940Z,14.43
2022-09-28T17:59:08.280Z,14.37
2022-09-28T18:01:38.813Z,14.36
2022-09-28T18:04:08.075Z,14.36
2022-09-28T18:06:39.421Z,14.30
2022-09-28T18:09:06.317Z,14.36
2022-09-28T18:11:33.782Z,14.32
2022-09-28T18:14:00.849Z,14.31
2022-09-28T18:16:28.888Z,14.21
2022-09-28T18:18:55.976Z,14.01
2022-09-28T18:21:22.809Z,14.13
2022-09-28T18:23:49.570Z,14.10
2022-09-28T18:26:19.005Z,14.00
2022-09-28T18:28:46.631Z,13.92
2022-09-28T18:31:15.149Z,13.88
2022-09-28T18:33:42.045Z,13.78
2022-09-28T18:36:08.985Z,13.69
2022-09-28T18:38:36.719Z,13.62
2022-09-28T18:41:21.848Z,13.51
2022-09-28T18:43:49.937Z,13.34
2022-09-28T18:46:20.306Z,13.30
2022-09-28T18:48:47.799Z,13.17
2022-09-28T18:51:15.202Z,13.22
2022-09-28T18:53:42.142Z,13.18
2022-09-28T18:56:11.088Z,13.19
2022-09-28T18:58:39.501Z,13.19
2022-09-28T19:01:28.580Z,13.12
2022-09-28T19:03:55.259Z,12.99
2022-09-28T19:06:22.303Z,12.88
2022-09-28T19:08:53.371Z,12.84
2022-09-28T19:11:21.568Z,12.65
2022-09-28T19:13:48.480Z,12.65
2022-09-28T19:16:25.095Z,12.81
2022-09-28T19:18:53.734Z,12.76
2022-09-28T19:21:22.716Z,12.80
2022-09-28T19:23:50.111Z,12.84
2022-09-28T19:26:20.880Z,12.68
2022-09-28T19:28:48.320Z,12.71
2022-09-28T19:31:15.597Z,12.59
2022-09-28T19:33:42.368Z,12.55
2022-09-28T19:36:12.165Z,12.53
2022-09-28T19:38:39.920Z,12.51
2022-09-28T19:41:10.695Z,12.50
2022-09-28T19:43:38.303Z,12.47
2022-09-28T19:46:06.617Z,12.49
2022-09-28T19:48:34.375Z,12.48
2022-09-28T19:51:06.220Z,12.54
2022-09-28T19:53:37.849Z,12.50
2022-09-28T19:56:05.595Z,12.44
2022-09-28T19:58:36.596Z,12.38
2022-09-28T20:01:07.182Z,12.41
2022-09-28T20:03:34.815Z,12.44
2022-09-28T20:06:02.055Z,12.37
2022-09-28T20:08:32.065Z,12.28
2022-09-28T20:10:59.856Z,12.25
2022-09-28T20:13:31.919Z,12.30
2022-09-28T20:16:10.167Z,12.31
2022-09-28T20:18:39.014Z,12.44
2022-09-28T20:21:10.606Z,12.50
2022-09-28T20:23:37.514Z,12.39
2022-09-28T20:26:05.301Z,12.44
2022-09-28T20:28:33.371Z,12.47
2022-09-28T20:31:38.102Z,12.33
2022-09-28T20:34:05.829Z,12.39
2022-09-28T20:36:33.213Z,12.37
2022-09-28T20:39:04.041Z,12.31
2022-09-28T20:41:35.662Z,12.48
2022-09-28T20:44:05.568Z,12.43
2022-09-28T20:46:35.945Z,12.41
2022-09-28T20:49:03.941Z,12.48
2022-09-28T20:51:30.964Z,12.48
2022-09-28T20:53:58.996Z,12.46
2022-09-28T20:56:31.570Z,12.57
2022-09-28T20:58:58.450Z,12.47
2022-09-28T21:01:30.482Z,12.46
2022-09-28T21:04:02.083Z,12.48
2022-09-28T21:06:33.707Z,12.50
2022-09-28T21:09:01.269Z,12.56
2022-09-28T21:11:29.790Z,12.44
2022-09-28T21:13:58.951Z,12.42
2022-09-28T21:16:27.855Z,12.36
2022-09-28T21:18:54.856Z,12.36
2022-09-28T21:21:23.098Z,12.32
2022-09-28T21:23:56.987Z,12.29
2022-09-28T21:26:26.691Z,12.34
2022-09-28T21:28:58.792Z,12.34
2022-09-28T21:31:29.185Z,12.32
2022-09-28T21:33:57.432Z,12.37
2022-09-28T21:36:24.764Z,12.39
2022-09-28T21:38:52.355Z,12.41
2022-09-28T21:41:19.141Z,12.42
2022-09-28T21:43:45.928Z,12.44
2022-09-28T21:46:13.094Z,12.43
2022-09-28T21:48:41.898Z,12.28
2022-09-28T21:51:13.551Z,12.35
2022-09-28T21:53:41.578Z,12.31
2022-09-28T21:56:12.363Z,12.39
2022-09-28T21:58:40.817Z,12.35
2022-09-28T22:01:15.820Z,12.34
2022-09-28T22:03:45.446Z,12.37
2022-09-28T22:06:14.560Z,12.35
2022-09-28T22:08:41.862Z,12.39
2022-09-28T22:11:11.702Z,12.32
2022-09-28T22:13:47.151Z,12.26
2022-09-28T22:16:15.682Z,12.24
2022-09-28T22:18:43.157Z,12.31
2022-09-28T22:21:15.394Z,12.36
2022-09-28T22:23:42.203Z,12.43
2022-09-28T22:26:25.981Z,12.46
2022-09-28T22:29:00.440Z,12.48
2022-09-28T22:31:30.375Z,12.49
2022-09-28T22:33:58.094Z,12.48
2022-09-28T22:36:25.947Z,12.51
2022-09-28T22:38:54.214Z,12.34
2022-09-28T22:41:21.236Z,12.44
2022-09-28T22:43:49.704Z,12.48
2022-09-28T22:46:21.937Z,12.38
2022-09-28T22:48:51.218Z,12.40
2022-09-28T22:51:18.719Z,12.40
2022-09-28T22:53:45.695Z,12.44
2022-09-28T22:56:18.181Z,12.37
2022-09-28T22:58:45.759Z,12.40
2022-09-28T23:01:15.082Z,12.36
2022-09-28T23:03:42.610Z,12.35
2022-09-28T23:06:10.950Z,12.39
2022-09-28T23:08:38.356Z,12.40
2022-09-28T23:11:06.162Z,12.43
2022-09-28T23:13:33.218Z,12.42
2022-09-28T23:16:05.641Z,12.43
2022-09-28T23:18:35.014Z,12.40
2022-09-28T23:21:04.320Z,12.46
2022-09-28T23:23:33.279Z,12.50
2022-09-28T23:26:01.569Z,12.51
2022-09-28T23:28:29.373Z,12.52
2022-09-28T23:30:56.653Z,12.48
2022-09-28T23:33:23.710Z,12.50
2022-09-28T23:35:51.121Z,12.37
2022-09-28T23:38:18.454Z,12.44
2022-09-28T23:40:46.740Z,12.37
2022-09-28T23:43:14.351Z,12.38
2022-09-28T23:45:43.881Z,12.34
2022-09-28T23:48:11.743Z,12.38
2022-09-28T23:50:38.553Z,12.27
2022-09-28T23:53:05.718Z,12.34
2022-09-28T23:55:33.081Z,12.36
2022-09-28T23:57:59.885Z,12.37
